Flight Track Log - Related Links

Times and Time Zones

All times are in EDT time to prevent confusion due to time zone crossing. See the N7484J flight status page for this flight to view local times or setup timezone preferences in your user account.

Time Position Orientation Groundspeed Altitude Reporting Facility
EDT Latitude Longitude Course Direction KTS MPH feet Rate Location/Type
Thu 01:25:07 PM 38.9333 -76.1833 270° West 114 131 2,500  Level Potomac TRACON
Thu 01:26:07 PM 38.9333 -76.2167 270° West 111 128 2,500 50 Level Potomac TRACON
Thu 01:27:07 PM 38.9333 -76.2667 270° West 120 138 2,600  Climbing Potomac TRACON
Thu 01:28:08 PM 38.9333 -76.3167 270° West 122 140 2,500 -95 Descending Potomac TRACON
Thu 01:29:13 PM 38.9333 -76.3500 270° West 119 137 2,400  Descending Potomac TRACON
Thu 01:30:08 PM 38.9167 -76.3833 237° Southwest 115 132 2,500 -52 Climbing Potomac TRACON
Thu 01:31:08 PM 38.9167 -76.4333 270° West 121 139 2,300 -95 Descending Potomac TRACON
Thu 01:32:14 PM 38.9167 -76.4833 270° West 121 139 2,300 -48 Level Potomac TRACON
Thu 01:33:14 PM 38.9333 -76.5167 303° West 118 136 2,200 -53 Descending Potomac TRACON
Thu 01:34:08 PM 38.9333 -76.5500 270° West 117 135 2,200 -100 Level Potomac TRACON
Thu 01:35:14 PM 38.9500 -76.6000 293° West 121 139 2,000 -150 Descending Potomac TRACON
Thu 01:36:08 PM 38.9500 -76.6333 270° West 121 139 1,900 -50 Descending Potomac TRACON
Thu 01:37:14 PM 38.9500 -76.6833 270° West 111 128 1,900 50 Level Potomac TRACON
Thu 01:38:09 PM 38.9500 -76.7167 270° West 120 138 2,000 -52 Climbing Potomac TRACON
Thu 01:39:09 PM 38.9667 -76.7667 293° West 121 139 1,800 -298 Descending Potomac TRACON
Thu 01:40:10 PM 38.9667 -76.8167 270° West 125 144 1,400 -331 Descending Potomac TRACON
Thu 01:41:16 PM 38.9667 -76.8500 270° West 117 135 1,100 -143 Descending Potomac TRACON
Thu 01:42:16 PM 38.9667 -76.9000 270° West 116 133 1,100  Level Potomac TRACON
Thu 01:44:00 PM 38.9667 -76.9167 258° West  Level FlightAware Approximate
Thu 01:51:00 PM 38.9806 -76.9223 258° West  Level Estimated
Thu 01:52:00 PM 38.9806 -76.9223 163° South  Level Estimated

Login

Don't have an account? Register now (free) for customized features, flight alerts, and more!